Time;durP1;ratioP1;P1;durP2;ratioP2;P2;SDS_P1;SDS_P2;PMS_P1;PMS_P2;Temp;Humidity;BMP_temperature;BMP_pressure;BME280_temperature;BME280_humidity;BME280_pressure;Samples;Min_cycle;Max_cycle;Signal;HPM_P1;HPM_P2
2023/06/05 04:25:28;;;;;;;7.95;2.70;;;;;;;9.96;73.68;96654.56;2080310;28;20567;-56
2023/06/05 04:26:31;;;;;;;3.90;2.13;;;;;;;10.01;73.62;96667.44;2066516;28;20194;-58
2023/06/05 08:29:51;;;;;;;11.10;3.60;;;;;;;23.13;44.91;96661.16;2084068;28;20564;-56
2023/06/05 08:32:05;;;;;;;6.47;2.92;;;;;;;23.60;44.99;96670.91;2092622;27;20552;-57
2023/06/05 08:34:15;;;;;;;12.43;3.60;;;;;;;23.43;44.35;96672.53;2084399;27;20761;-56
2023/06/05 08:36:32;;;;;;;14.63;3.22;;;;;;;23.76;45.35;96664.91;2106358;27;20568;-56
2023/06/05 08:38:54;;;;;;;16.20;3.28;;;;;;;23.14;46.45;96673.47;2084845;28;21075;-56
2023/06/05 08:41:23;;;;;;;8.25;3.63;;;;;;;23.88;45.48;96667.34;2083293;28;20912;-57
2023/06/05 08:42:28;;;;;;;15.18;3.90;;;;;;;23.91;45.19;96661.75;2082476;28;20321;-56
2023/06/05 08:44:47;;;;;;;6.65;3.00;;;;;;;24.11;45.58;96657.09;2083216;28;20576;-56
2023/06/05 08:46:05;;;;;;;8.50;3.70;;;;;;;24.01;45.28;96672.34;2080827;28;20294;-57
2023/06/05 08:48:45;;;;;;;7.40;3.38;;;;;;;24.26;45.89;96668.91;2082945;28;20564;-56
2023/06/05 08:49:47;;;;;;;13.55;4.78;;;;;;;24.15;45.72;96676.31;2081386;28;20320;-57
2023/06/05 08:50:49;;;;;;;13.05;3.92;;;;;;;23.44;45.85;96681.38;2071889;28;20271;-57
2023/06/05 08:51:52;;;;;;;19.45;3.85;;;;;;;23.13;47.42;96671.81;2073949;28;20248;-58
2023/06/05 08:54:41;;;;;;;18.85;4.20;;;;;;;23.68;46.96;96667.50;2099950;27;20570;-57
2023/06/05 08:55:46;;;;;;;12.77;4.28;;;;;;;24.04;47.27;96661.38;2092630;28;20810;-57
2023/06/05 08:56:49;;;;;;;12.48;4.00;;;;;;;24.20;46.57;96664.19;2090852;28;20196;-57
2023/06/05 08:57:52;;;;;;;9.52;4.00;;;;;;;24.58;46.68;96670.16;2088582;28;20235;-57
2023/06/05 08:58:55;;;;;;;14.02;4.68;;;;;;;24.70;46.37;96670.78;2090315;28;20193;-58
2023/06/05 08:59:58;;;;;;;8.88;4.30;;;;;;;24.53;46.73;96671.59;2089830;28;20196;-57
2023/06/05 09:01:00;;;;;;;9.52;3.90;;;;;;;24.68;46.49;96663.91;2089552;28;20219;-57
2023/06/05 09:02:01;;;;;;;7.45;3.60;;;;;;;24.68;46.44;96662.06;2089457;28;20702;-57
2023/06/05 09:03:03;;;;;;;11.57;3.90;;;;;;;24.18;46.98;96666.16;2089837;28;20205;-57
2023/06/05 09:04:04;;;;;;;6.25;3.65;;;;;;;24.56;47.03;96669.47;2088354;28;20196;-57
2023/06/05 09:05:07;;;;;;;9.10;4.07;;;;;;;24.90;46.02;96663.38;2088616;28;20283;-57
2023/06/05 09:06:10;;;;;;;18.60;4.03;;;;;;;24.52;46.23;96656.59;2088063;28;20245;-57
2023/06/05 09:07:12;;;;;;;10.50;4.28;;;;;;;24.83;46.49;96664.19;2089149;28;20196;-57
2023/06/05 09:08:15;;;;;;;9.65;4.90;;;;;;;24.87;46.38;96662.88;2091513;28;20703;-58
2023/06/05 09:09:17;;;;;;;13.90;4.35;;;;;;;24.94;46.36;96664.75;2090236;28;20539;-57
2023/06/05 09:10:24;;;;;;;11.35;3.95;;;;;;;25.08;46.63;96665.16;2088294;28;20671;-57
2023/06/05 09:11:27;;;;;;;10.50;4.07;;;;;;;25.25;46.65;96664.25;2091101;28;20196;-57
2023/06/05 09:12:28;;;;;;;10.10;4.35;;;;;;;25.47;45.57;96664.69;2089872;28;20195;-57
2023/06/05 09:13:45;;;;;;;8.15;4.05;;;;;;;25.64;45.00;96665.56;2088770;28;20188;-57
2023/06/05 09:14:47;;;;;;;8.02;4.28;;;;;;;25.63;45.00;96665.72;2090876;28;20223;-57
2023/06/05 09:15:50;;;;;;;14.43;3.30;;;;;;;25.52;44.14;96667.72;2087924;28;20337;-58
2023/06/05 09:16:52;;;;;;;8.40;4.07;;;;;;;25.66;44.78;96662.72;2090087;28;20484;-58
2023/06/05 09:18:08;;;;;;;8.82;4.22;;;;;;;25.72;45.61;96668.25;2091693;28;20863;-57
2023/06/05 09:19:11;;;;;;;17.10;4.32;;;;;;;25.88;44.99;96674.66;2087848;28;20786;-58
2023/06/05 09:20:25;;;;;;;8.60;4.28;;;;;;;25.86;45.44;96668.63;2089496;28;20231;-58
2023/06/05 09:21:31;;;;;;;10.45;4.00;;;;;;;26.27;45.26;96667.88;2090594;28;20265;-58
2023/06/05 09:22:35;;;;;;;8.30;4.00;;;;;;;26.31;45.22;96671.88;2090586;28;20193;-58
2023/06/05 09:23:37;;;;;;;11.52;4.35;;;;;;;25.71;44.96;96665.75;2089101;28;20232;-58
2023/06/05 09:24:40;;;;;;;8.02;4.50;;;;;;;25.56;45.60;96671.72;2086447;28;20205;-57
2023/06/05 09:25:48;;;;;;;10.65;3.80;;;;;;;26.05;45.46;96663.00;2087612;28;20220;-58
2023/06/05 09:26:53;;;;;;;10.93;3.80;;;;;;;25.97;45.50;96660.28;2088978;28;20199;-58
2023/06/05 09:28:07;;;;;;;10.50;3.95;;;;;;;25.35;45.33;96661.41;2089884;28;20208;-57
2023/06/05 09:29:09;;;;;;;9.70;3.55;;;;;;;25.26;46.01;96663.22;2090717;28;20813;-57
2023/06/05 09:30:11;;;;;;;9.63;3.65;;;;;;;25.66;45.40;96657.38;2089653;28;20253;-57
2023/06/05 09:31:12;;;;;;;9.82;4.05;;;;;;;25.95;45.30;96664.13;2090840;28;20199;-58
2023/06/05 09:32:19;;;;;;;12.05;4.20;;;;;;;26.38;44.82;96667.53;2090162;28;20449;-57
2023/06/05 09:33:23;;;;;;;7.53;4.25;;;;;;;26.43;43.97;96659.84;2086416;28;20566;-58
2023/06/05 09:34:25;;;;;;;8.18;3.90;;;;;;;26.57;43.36;96666.34;2089643;28;20625;-58
2023/06/05 09:35:27;;;;;;;6.28;4.22;;;;;;;25.88;44.42;96663.97;2088627;28;20306;-57
2023/06/05 09:36:34;;;;;;;9.25;4.28;;;;;;;26.27;43.71;96668.72;2090514;28;20246;-57
2023/06/05 09:37:37;;;;;;;12.07;4.72;;;;;;;25.96;44.38;96665.81;2091007;28;20234;-57
2023/06/05 09:38:41;;;;;;;10.85;4.30;;;;;;;25.40;45.27;96658.31;2087551;28;20193;-57
2023/06/05 09:39:43;;;;;;;8.05;4.40;;;;;;;25.38;45.71;96652.28;2089957;28;20557;-57
2023/06/05 09:40:45;;;;;;;10.00;4.50;;;;;;;26.09;44.61;96658.16;2088886;28;20235;-57
2023/06/05 09:41:48;;;;;;;9.25;4.43;;;;;;;26.25;44.82;96649.31;2089731;28;20869;-58
2023/06/05 09:42:50;;;;;;;7.30;4.30;;;;;;;26.62;44.69;96666.69;2088002;28;20540;-57
2023/06/05 09:43:52;;;;;;;5.65;4.03;;;;;;;26.71;43.92;96646.91;2090696;28;20200;-57
2023/06/05 09:45:00;;;;;;;11.77;3.80;;;;;;;25.47;44.31;96654.00;2088601;28;20193;-57
2023/06/05 09:46:09;;;;;;;6.25;4.20;;;;;;;25.46;45.33;96656.81;2085456;28;20680;-57
2023/06/05 09:47:13;;;;;;;7.93;4.50;;;;;;;26.23;44.64;96652.16;2087018;28;20667;-57
2023/06/05 09:48:15;;;;;;;13.05;4.00;;;;;;;26.51;44.43;96659.84;2088522;28;20196;-57
2023/06/05 09:49:17;;;;;;;11.23;4.15;;;;;;;26.75;44.04;96651.97;2090416;28;20242;-57
2023/06/05 09:50:27;;;;;;;9.68;4.15;;;;;;;26.95;43.56;96652.44;2088821;28;20203;-57
2023/06/05 09:51:29;;;;;;;14.32;4.93;;;;;;;26.20;42.83;96649.78;2087709;28;20197;-58
2023/06/05 09:52:35;;;;;;;9.27;4.70;;;;;;;25.87;44.23;96651.59;2086219;28;20200;-57
2023/06/05 09:53:42;;;;;;;7.43;4.30;;;;;;;25.39;45.33;96651.28;2088459;28;20662;-57
2023/06/05 09:54:44;;;;;;;7.70;4.15;;;;;;;25.90;45.32;96652.09;2088794;28;20664;-57
2023/06/05 09:55:46;;;;;;;5.70;3.67;;;;;;;26.33;44.54;96648.47;2087756;28;20216;-58
2023/06/05 09:56:49;;;;;;;10.30;4.60;;;;;;;26.94;43.42;96650.75;2088163;28;20643;-58
2023/06/05 09:57:51;;;;;;;9.82;4.25;;;;;;;27.13;42.93;96641.50;2090122;28;20197;-58
2023/06/05 09:58:53;;;;;;;15.70;4.85;;;;;;;27.05;42.92;96650.38;2090027;28;20224;-57
2023/06/05 09:59:54;;;;;;;9.65;4.20;;;;;;;27.29;42.82;96644.09;2088809;28;20295;-57
2023/06/05 10:01:00;;;;;;;7.55;3.78;;;;;;;27.68;42.48;96650.47;2086516;28;20247;-58
2023/06/05 10:02:06;;;;;;;10.50;4.40;;;;;;;27.75;42.53;96647.94;2088860;28;20196;-57
2023/06/05 10:03:13;;;;;;;8.98;4.40;;;;;;;26.98;43.21;96644.03;2093039;28;20200;-58
2023/06/05 10:04:18;;;;;;;14.43;4.10;;;;;;;27.40;42.51;96650.13;2093139;28;20207;-57
2023/06/05 10:05:21;;;;;;;9.32;4.10;;;;;;;26.84;43.51;96643.75;2087116;28;20354;-57
2023/06/05 10:06:27;;;;;;;9.30;4.20;;;;;;;27.47;43.19;96648.41;2084239;28;20203;-58
2023/06/05 10:07:35;;;;;;;8.85;3.95;;;;;;;27.06;42.86;96646.72;2083941;28;20196;-58
2023/06/05 10:08:36;;;;;;;6.90;4.28;;;;;;;27.08;42.58;96650.03;2083762;28;20720;-57
2023/06/05 10:09:39;;;;;;;10.07;3.90;;;;;;;27.39;42.70;96649.28;2081708;28;20824;-58
2023/06/05 10:10:42;;;;;;;7.25;4.05;;;;;;;27.57;42.49;96650.91;2083660;28;20217;-57
2023/06/05 10:11:47;;;;;;;6.07;3.65;;;;;;;27.75;41.86;96642.56;2084227;28;20262;-58
2023/06/05 10:12:49;;;;;;;9.32;4.53;;;;;;;27.67;41.33;96640.78;2084110;28;20246;-58
2023/06/05 10:13:52;;;;;;;7.68;3.95;;;;;;;27.19;42.51;96643.47;2085453;28;20219;-57
2023/06/05 10:14:54;;;;;;;11.88;3.72;;;;;;;27.68;42.17;96647.78;2085593;28;20299;-58
2023/06/05 10:15:56;;;;;;;10.45;4.75;;;;;;;27.57;42.84;96643.69;2083221;28;20256;-58
2023/06/05 10:16:58;;;;;;;10.75;3.60;;;;;;;27.20;42.46;96651.34;2084167;28;20197;-58
2023/06/05 10:18:00;;;;;;;8.95;4.03;;;;;;;27.09;42.29;96641.00;2083541;28;20569;-58
2023/06/05 10:19:03;;;;;;;12.45;4.38;;;;;;;26.85;43.35;96641.91;2080568;28;20200;-58
2023/06/05 10:20:06;;;;;;;8.85;4.43;;;;;;;26.56;43.68;96636.06;2080024;28;20725;-58
2023/06/05 10:21:09;;;;;;;8.82;5.10;;;;;;;26.47;43.52;96646.97;2080542;28;20896;-57
2023/06/05 10:22:11;;;;;;;12.07;4.00;;;;;;;26.42;43.72;96646.63;2081786;28;20331;-58
2023/06/05 10:23:17;;;;;;;11.15;4.00;;;;;;;27.20;42.66;96639.78;2084232;28;20288;-57
2023/06/05 10:24:26;;;;;;;9.10;4.32;;;;;;;27.78;41.63;96647.56;2085394;28;20199;-58
2023/06/05 10:25:30;;;;;;;9.50;4.43;;;;;;;27.51;41.23;96639.84;2083097;28;20273;-58
2023/06/05 10:27:01;;;;;;;15.23;4.15;;;;;;;27.83;41.20;96646.03;2080415;28;20193;-57
2023/06/05 10:28:19;;;;;;;5.07;3.45;;;;;;;28.31;40.29;96634.31;2080417;28;20201;-57
2023/06/05 10:29:43;;;;;;;7.07;3.65;;;;;;;28.52;40.59;96644.38;2083595;28;20334;-58
2023/06/05 10:31:10;;;;;;;5.32;3.13;;;;;;;27.41;42.03;96643.75;2083030;28;20614;-58
2023/06/05 10:32:32;;;;;;;7.65;3.95;;;;;;;27.66;41.81;96647.97;2083057;28;20269;-58
2023/06/05 10:33:48;;;;;;;9.40;4.63;;;;;;;27.16;42.48;96644.66;2082242;28;20201;-57
2023/06/05 10:34:59;;;;;;;5.47;3.30;;;;;;;28.00;41.17;96645.94;2085762;28;20294;-58
2023/06/05 10:36:16;;;;;;;7.80;4.15;;;;;;;28.94;40.44;96642.97;2083544;28;20699;-59
2023/06/05 10:37:36;;;;;;;9.88;4.07;;;;;;;28.56;39.94;96651.03;2084237;28;20874;-59
2023/06/05 10:38:39;;;;;;;6.93;4.00;;;;;;;28.28;40.88;96646.25;2084871;28;20201;-58
2023/06/05 10:39:41;;;;;;;5.70;3.70;;;;;;;28.38;40.28;96639.78;2083457;28;20207;-58
2023/06/05 10:41:03;;;;;;;8.93;4.00;;;;;;;28.49;39.78;96642.03;2082017;28;20577;-58
2023/06/05 10:42:05;;;;;;;5.95;3.67;;;;;;;28.69;39.72;96647.75;2082746;28;20568;-58
2023/06/05 10:43:32;;;;;;;7.72;3.58;;;;;;;28.93;39.47;96635.91;2084380;28;20590;-58
2023/06/05 10:44:44;;;;;;;9.43;5.15;;;;;;;28.72;39.44;96636.66;2084113;28;20584;-58
2023/06/05 10:45:47;;;;;;;13.70;3.80;;;;;;;29.02;39.36;96641.22;2082156;28;20216;-58
2023/06/05 10:47:33;;;;;;;5.77;3.73;;;;;;;29.62;38.61;96642.00;2086802;28;20201;-58
2023/06/05 10:49:14;;;;;;;7.33;3.77;;;;;;;28.93;38.94;96640.47;2083249;28;20426;-60
2023/06/05 10:50:15;;;;;;;7.17;3.73;;;;;;;28.52;39.08;96642.50;2082966;28;20453;-59
2023/06/05 10:51:40;;;;;;;7.57;3.75;;;;;;;28.64;38.39;96642.91;2084049;28;20928;-59
2023/06/05 10:52:43;;;;;;;10.65;3.67;;;;;;;28.97;38.07;96637.22;2083890;28;20200;-59
2023/06/05 10:53:49;;;;;;;12.40;3.67;;;;;;;28.68;38.76;96646.09;2084580;28;20193;-59
2023/06/05 10:54:50;;;;;;;13.33;3.70;;;;;;;29.12;37.71;96650.66;2085865;28;20430;-59
2023/06/05 10:55:52;;;;;;;11.00;3.30;;;;;;;29.36;37.77;96640.66;2083161;28;20461;-59
2023/06/05 10:57:02;;;;;;;8.00;3.58;;;;;;;29.72;37.60;96641.72;2081256;28;20426;-59
2023/06/05 10:58:10;;;;;;;10.43;3.97;;;;;;;29.66;37.17;96635.22;2080390;28;20751;-59
2023/06/05 10:59:15;;;;;;;8.77;3.45;;;;;;;29.24;37.90;96634.06;2083178;28;20934;-59
2023/06/05 11:00:17;;;;;;;9.20;3.60;;;;;;;29.23;37.37;96632.38;2082239;28;20235;-59
2023/06/05 11:01:20;;;;;;;9.20;3.80;;;;;;;29.52;37.36;96628.84;2083428;28;20428;-59
2023/06/05 11:02:22;;;;;;;8.47;3.70;;;;;;;28.98;37.28;96633.50;2082067;28;20501;-59
2023/06/05 11:03:58;;;;;;;6.87;3.97;;;;;;;29.29;37.45;96624.47;2082370;28;20789;-59
2023/06/05 11:04:59;;;;;;;12.73;3.73;;;;;;;28.64;38.53;96631.31;2082970;28;20430;-59
2023/06/05 11:06:12;;;;;;;13.27;4.23;;;;;;;28.31;39.01;96623.56;2084031;28;20450;-59
2023/06/05 11:07:16;;;;;;;8.07;3.80;;;;;;;28.35;38.53;96632.94;2083982;28;20913;-59
2023/06/05 11:08:19;;;;;;;8.33;3.57;;;;;;;28.73;38.60;96626.75;2084631;28;20426;-60
2023/06/05 11:09:21;;;;;;;6.87;3.80;;;;;;;29.24;37.71;96624.16;2080255;28;20438;-59
2023/06/05 11:10:22;;;;;;;9.30;3.70;;;;;;;28.12;38.21;96627.59;2083629;28;20435;-59
2023/06/05 11:11:24;;;;;;;7.30;3.30;;;;;;;28.28;38.36;96627.47;2082598;28;20435;-59
2023/06/05 11:12:25;;;;;;;6.20;2.93;;;;;;;27.92;39.24;96624.50;2082820;28;20442;-59
2023/06/05 11:13:54;;;;;;;14.00;4.00;;;;;;;27.11;40.25;96630.09;2082360;28;20491;-59
2023/06/05 11:14:56;;;;;;;9.50;3.83;;;;;;;27.36;40.44;96628.16;2083724;28;20521;-59
2023/06/05 11:15:58;;;;;;;10.50;3.97;;;;;;;27.28;40.32;96631.72;2079535;28;20240;-60
2023/06/05 11:17:27;;;;;;;6.87;3.23;;;;;;;27.46;39.92;96639.53;2080674;28;20725;-59
2023/06/05 11:18:33;;;;;;;4.50;3.07;;;;;;;27.26;40.30;96627.53;2082224;28;20430;-59
2023/06/05 11:19:36;;;;;;;6.20;3.60;;;;;;;26.91;40.94;96624.31;2083369;28;20442;-59
2023/06/05 11:20:52;;;;;;;7.88;3.10;;;;;;;26.72;41.38;96629.00;2079598;28;20454;-59
2023/06/05 11:22:03;;;;;;;6.28;3.90;;;;;;;27.68;39.91;96631.69;2083475;28;20238;-59
2023/06/05 11:23:04;;;;;;;6.83;3.90;;;;;;;26.99;40.12;96622.44;2082561;28;20707;-59
2023/06/05 11:24:16;;;;;;;5.28;3.42;;;;;;;28.08;38.66;96618.22;2082731;28;20957;-59
2023/06/05 11:25:18;;;;;;;8.05;4.20;;;;;;;28.02;39.03;96622.44;2081847;28;20222;-59
2023/06/05 11:26:39;;;;;;;7.47;3.80;;;;;;;28.84;38.08;96624.41;2083516;28;20228;-59
2023/06/05 11:27:43;;;;;;;10.07;3.08;;;;;;;29.22;37.38;96617.31;2083737;28;20689;-59
2023/06/05 11:28:45;;;;;;;10.03;3.70;;;;;;;29.10;37.33;96612.41;2087177;28;20196;-59
2023/06/05 11:29:48;;;;;;;6.70;3.70;;;;;;;28.93;37.00;96618.97;2091107;28;20444;-59
2023/06/05 11:30:50;;;;;;;8.60;3.77;;;;;;;29.42;36.15;96613.03;2083578;28;20507;-59
2023/06/05 11:31:52;;;;;;;7.90;3.70;;;;;;;29.73;35.34;96624.56;2083201;28;20945;-59
2023/06/05 11:32:58;;;;;;;8.03;4.20;;;;;;;30.18;35.11;96617.13;2083198;28;20433;-59
2023/06/05 11:33:59;;;;;;;7.80;3.30;;;;;;;29.95;34.96;96618.19;2083901;28;20425;-59
2023/06/05 11:35:01;;;;;;;7.17;3.50;;;;;;;30.18;35.22;96606.38;2083135;28;20477;-59
2023/06/05 11:36:09;;;;;;;6.37;3.30;;;;;;;30.06;34.62;96608.75;2084735;28;20457;-59
2023/06/05 11:37:17;;;;;;;5.73;3.47;;;;;;;29.79;34.84;96611.16;2084314;28;20426;-59
2023/06/05 11:38:21;;;;;;;6.07;3.60;;;;;;;30.37;35.27;96610.28;2083481;28;20500;-59
2023/06/05 11:39:29;;;;;;;8.87;3.27;;;;;;;30.69;33.95;96607.22;2084167;28;20555;-59
2023/06/05 11:40:31;;;;;;;6.63;3.53;;;;;;;30.71;34.72;96608.69;2080633;28;20481;-59
2023/06/05 11:41:33;;;;;;;5.43;3.40;;;;;;;30.39;33.78;96610.91;2092247;28;20539;-59
2023/06/05 11:42:39;;;;;;;9.80;4.30;;;;;;;29.28;33.98;96601.28;2091098;28;20461;-59
2023/06/05 11:43:43;;;;;;;4.93;3.40;;;;;;;28.84;35.05;96613.69;2082681;28;20467;-59
2023/06/05 11:44:45;;;;;;;9.20;3.70;;;;;;;29.19;36.12;96604.22;2082682;28;20426;-60
2023/06/05 11:45:53;;;;;;;7.97;3.67;;;;;;;28.85;36.81;96601.09;2083080;28;20457;-60
2023/06/05 11:46:55;;;;;;;5.87;3.00;;;;;;;27.82;37.61;96592.56;2087295;28;20468;-59
2023/06/05 11:48:17;;;;;;;5.03;2.73;;;;;;;27.16;38.49;96603.63;2087227;28;20425;-59
2023/06/05 11:49:29;;;;;;;5.30;3.30;;;;;;;27.29;38.27;96603.09;2079923;28;20836;-59
2023/06/05 11:50:31;;;;;;;7.60;3.17;;;;;;;27.25;38.11;96599.06;2080238;28;20544;-59
2023/06/05 11:51:36;;;;;;;7.03;3.30;;;;;;;26.72;39.11;96605.75;2083329;28;20817;-59
2023/06/05 11:52:39;;;;;;;6.13;3.27;;;;;;;26.92;38.92;96607.22;2085079;28;20756;-59
2023/06/05 11:53:47;;;;;;;7.50;3.13;;;;;;;26.99;38.39;96603.69;2083649;28;21202;-59
2023/06/05 11:55:05;;;;;;;7.33;3.13;;;;;;;27.35;38.11;96605.88;2083485;28;21101;-59
2023/06/05 11:56:16;;;;;;;5.57;3.20;;;;;;;28.35;37.13;96600.72;2074839;28;20970;-59
2023/06/05 11:57:18;;;;;;;7.45;3.30;;;;;;;28.99;36.68;96596.75;2075415;28;20438;-59
2023/06/05 11:58:27;;;;;;;5.57;2.87;;;;;;;29.43;35.66;96603.94;2076832;28;20280;-59
2023/06/05 11:59:28;;;;;;;9.10;3.77;;;;;;;29.62;34.41;96598.97;2071575;28;20471;-60
2023/06/05 12:00:30;;;;;;;8.97;3.57;;;;;;;29.37;34.68;96598.47;2073386;28;20492;-60
2023/06/05 12:01:31;;;;;;;8.03;3.03;;;;;;;29.91;34.02;96602.63;2083392;28;20426;-59
2023/06/05 12:02:33;;;;;;;8.50;3.10;;;;;;;29.53;34.13;96602.81;2079977;28;20434;-59
2023/06/05 12:03:35;;;;;;;7.07;3.37;;;;;;;29.94;34.77;96597.69;2083440;28;20824;-60
2023/06/05 12:04:41;;;;;;;4.67;2.73;;;;;;;29.78;34.51;96605.97;2082744;28;20434;-59
2023/06/05 12:05:43;;;;;;;5.20;3.13;;;;;;;30.07;33.89;96599.66;2082809;28;20511;-59
2023/06/05 12:06:51;;;;;;;13.63;3.20;;;;;;;30.06;33.58;96605.25;2083728;28;20458;-59
2023/06/05 12:07:53;;;;;;;8.07;3.07;;;;;;;29.48;34.56;96604.22;2083798;28;20430;-59
2023/06/05 12:09:14;;;;;;;8.00;3.20;;;;;;;28.94;34.73;96607.22;2083448;28;20479;-59
2023/06/05 12:10:15;;;;;;;9.60;2.97;;;;;;;28.60;35.56;96606.69;2083177;28;20492;-59
2023/06/05 12:11:21;;;;;;;3.53;2.73;;;;;;;28.14;36.35;96598.72;2081044;28;20425;-59
2023/06/05 12:12:22;;;;;;;10.13;2.97;;;;;;;27.80;35.72;96606.16;2081019;28;20992;-59
2023/06/05 12:13:52;;;;;;;8.43;2.93;;;;;;;27.83;35.70;96604.94;2081313;28;20437;-58
2023/06/05 12:14:54;;;;;;;10.03;3.43;;;;;;;27.98;35.48;96599.66;2083908;28;20430;-58
2023/06/05 12:15:59;;;;;;;8.50;3.10;;;;;;;28.50;35.36;96603.44;2082760;28;20983;-58
2023/06/05 12:17:09;;;;;;;11.93;3.23;;;;;;;28.94;34.65;96597.28;2083376;28;20858;-58
2023/06/05 12:18:11;;;;;;;6.00;2.80;;;;;;;29.64;34.05;96592.38;2082977;28;20423;-59
2023/06/05 12:19:19;;;;;;;5.87;3.47;;;;;;;29.94;32.91;96596.84;2082178;28;20833;-58
2023/06/05 12:20:21;;;;;;;5.40;3.27;;;;;;;29.96;33.63;96595.63;2081852;28;20461;-58
2023/06/05 12:21:26;;;;;;;4.50;2.60;;;;;;;30.06;33.32;96599.88;2079582;28;20799;-58
2023/06/05 12:22:34;;;;;;;7.77;2.73;;;;;;;30.28;33.80;96596.13;2081273;28;20849;-58
2023/06/05 12:23:36;;;;;;;7.53;3.10;;;;;;;30.29;33.06;96591.56;2079592;28;20484;-58
2023/06/05 12:24:38;;;;;;;4.47;3.20;;;;;;;30.43;33.33;96593.31;2079895;28;20430;-58
2023/06/05 12:25:39;;;;;;;5.30;2.90;;;;;;;29.83;32.60;96584.72;2083113;28;20453;-58
2023/06/05 12:26:51;;;;;;;10.73;3.40;;;;;;;29.57;33.13;96585.25;2083635;28;20421;-58
2023/06/05 12:27:53;;;;;;;6.73;3.40;;;;;;;30.19;32.65;96591.88;2081866;28;20906;-58
2023/06/05 12:29:06;;;;;;;4.80;3.20;;;;;;;29.36;32.80;96589.59;2082574;28;20418;-58
2023/06/05 12:30:09;;;;;;;6.23;2.90;;;;;;;30.13;32.93;96587.28;2082394;28;20501;-58
2023/06/05 12:31:35;;;;;;;6.03;2.73;;;;;;;29.84;33.03;96581.00;2082623;28;20437;-58
2023/06/05 12:32:39;;;;;;;5.50;3.20;;;;;;;29.41;32.96;96586.34;2082638;28;20430;-58
2023/06/05 12:33:48;;;;;;;6.93;3.13;;;;;;;29.58;33.10;96590.44;2082938;28;20540;-59
2023/06/05 12:34:51;;;;;;;5.67;2.50;;;;;;;29.79;33.40;96584.25;2081129;28;20472;-60
2023/06/05 12:36:06;;;;;;;8.57;3.30;;;;;;;29.86;32.89;96587.00;2083632;28;20990;-58
2023/06/05 12:37:08;;;;;;;3.97;2.60;;;;;;;30.18;32.95;96582.13;2082074;28;20433;-58
2023/06/05 12:38:13;;;;;;;8.37;3.20;;;;;;;30.62;32.94;96582.94;2083805;28;20430;-58
2023/06/05 12:39:17;;;;;;;6.47;3.20;;;;;;;30.87;32.06;96587.88;2084071;28;20429;-58
2023/06/05 12:40:22;;;;;;;5.00;2.63;;;;;;;30.56;32.82;96573.78;2078705;28;20472;-58
2023/06/05 12:41:36;;;;;;;5.87;3.07;;;;;;;30.07;32.54;96577.31;2083030;28;20468;-59
2023/06/05 12:42:40;;;;;;;5.07;3.30;;;;;;;29.99;32.57;96575.56;2083332;28;20434;-58
2023/06/05 12:43:42;;;;;;;3.20;2.70;;;;;;;30.43;32.23;96571.78;2083105;28;20492;-59
2023/06/05 12:44:43;;;;;;;4.17;3.27;;;;;;;30.94;32.06;96575.25;2084886;28;20437;-58
2023/06/05 12:45:45;;;;;;;6.80;3.47;;;;;;;31.24;31.38;96573.13;2081740;28;20504;-58
2023/06/05 12:46:46;;;;;;;11.33;2.63;;;;;;;31.02;30.81;96580.47;2083876;28;20437;-58
2023/06/05 12:47:48;;;;;;;7.37;3.07;;;;;;;30.54;32.02;96569.63;2081323;28;20457;-58
2023/06/05 12:48:49;;;;;;;4.90;2.83;;;;;;;30.23;31.41;96576.19;2082758;28;20426;-58
2023/06/05 12:49:51;;;;;;;8.13;3.37;;;;;;;30.24;31.31;96567.09;2083724;28;21120;-58
2023/06/05 12:50:54;;;;;;;5.70;2.67;;;;;;;30.37;32.27;96572.59;2078725;28;20684;-58
2023/06/05 12:51:56;;;;;;;6.63;3.30;;;;;;;30.17;31.98;96574.25;2081430;28;20425;-58
2023/06/05 12:52:58;;;;;;;7.73;2.97;;;;;;;30.33;32.07;96567.78;2082953;28;20425;-58
2023/06/05 12:53:59;;;;;;;11.20;3.00;;;;;;;30.30;32.19;96569.81;2084209;28;20876;-58
2023/06/05 12:55:02;;;;;;;7.67;3.47;;;;;;;30.03;32.24;96571.47;2083902;28;20905;-58
2023/06/05 12:56:04;;;;;;;5.73;2.53;;;;;;;30.91;31.89;96572.94;2081869;28;20510;-58
2023/06/05 12:57:07;;;;;;;3.57;3.00;;;;;;;31.29;31.37;96572.53;2080943;28;20429;-58
2023/06/05 12:58:12;;;;;;;2.60;2.33;;;;;;;31.10;31.65;96571.41;2083460;28;20849;-58
2023/06/05 12:59:14;;;;;;;5.07;3.03;;;;;;;31.17;31.76;96566.03;2082625;28;20433;-58
2023/06/05 13:00:18;;;;;;;3.83;2.60;;;;;;;31.13;31.83;96562.09;2081062;28;20425;-58
2023/06/05 13:01:21;;;;;;;6.03;2.80;;;;;;;31.51;31.46;96572.41;2079596;28;20422;-59
2023/06/05 13:02:23;;;;;;;4.60;2.83;;;;;;;31.72;30.48;96574.16;2079702;28;20479;-58
2023/06/05 13:03:25;;;;;;;7.47;2.77;;;;;;;31.68;30.74;96565.63;2080999;28;20864;-59
2023/06/05 13:04:27;;;;;;;4.13;2.90;;;;;;;31.69;30.82;96570.00;2089717;28;20487;-58
2023/06/05 13:05:28;;;;;;;8.87;3.07;;;;;;;31.82;30.07;96569.19;2090020;28;20457;-58
2023/06/05 13:06:33;;;;;;;6.80;3.10;;;;;;;31.88;30.05;96567.50;2081977;28;20457;-58
2023/06/05 13:07:37;;;;;;;7.33;2.70;;;;;;;31.73;30.27;96571.25;2081885;28;20436;-58
2023/06/05 13:08:39;;;;;;;4.43;2.90;;;;;;;29.98;31.21;96568.53;2083717;28;20479;-58
2023/06/05 13:09:41;;;;;;;8.80;3.30;;;;;;;29.03;31.35;96555.03;2084086;28;20985;-58
2023/06/05 13:10:42;;;;;;;5.83;2.83;;;;;;;29.81;31.42;96560.69;2081953;28;20445;-58
2023/06/05 13:11:44;;;;;;;5.73;3.03;;;;;;;29.46;31.96;96567.78;2082693;28;20475;-59
2023/06/05 13:12:46;;;;;;;4.97;2.80;;;;;;;30.48;31.57;96565.84;2080944;28;20422;-58
2023/06/05 13:13:47;;;;;;;3.80;2.70;;;;;;;30.43;31.46;96565.56;2081090;28;20529;-58
2023/06/05 13:14:49;;;;;;;3.70;2.73;;;;;;;30.90;31.08;96563.19;2082729;28;20563;-58
2023/06/05 13:15:50;;;;;;;4.57;3.07;;;;;;;31.01;30.77;96567.19;2084932;28;20453;-58
2023/06/05 13:16:52;;;;;;;6.77;2.80;;;;;;;31.14;30.76;96555.69;2084266;28;21033;-58
2023/06/05 13:17:53;;;;;;;4.63;3.20;;;;;;;31.58;30.18;96562.47;2084008;28;20425;-58
2023/06/05 13:18:55;;;;;;;7.30;3.10;;;;;;;31.71;29.79;96562.50;2083888;28;20460;-58
2023/06/05 13:19:57;;;;;;;7.93;3.40;;;;;;;31.70;29.70;96558.13;2083158;28;20422;-58
2023/06/05 13:20:59;;;;;;;3.80;2.90;;;;;;;30.03;31.40;96555.31;2081838;28;20466;-58
2023/06/05 13:22:01;;;;;;;5.03;2.77;;;;;;;30.22;32.05;96564.59;2082316;28;20426;-58
2023/06/05 13:23:02;;;;;;;3.40;2.63;;;;;;;31.17;31.28;96558.78;2079557;28;20691;-58
2023/06/05 13:24:04;;;;;;;3.90;3.03;;;;;;;31.37;30.93;96558.84;2081354;28;20824;-58
2023/06/05 13:25:07;;;;;;;5.90;3.33;;;;;;;30.71;30.89;96557.47;2082735;28;20433;-58
2023/06/05 13:26:09;;;;;;;4.77;2.90;;;;;;;29.93;32.15;96554.81;2081543;28;20847;-58
2023/06/05 13:27:11;;;;;;;5.60;2.73;;;;;;;29.71;32.40;96545.88;2082943;28;20932;-58
2023/06/05 13:28:13;;;;;;;3.60;3.00;;;;;;;30.28;31.75;96546.81;2082997;28;20440;-58
2023/06/05 13:29:14;;;;;;;9.33;2.63;;;;;;;30.35;30.63;96554.94;2081204;28;20421;-58
2023/06/05 13:30:16;;;;;;;4.40;3.10;;;;;;;30.38;30.79;96554.56;2078612;28;20430;-58
2023/06/05 13:31:18;;;;;;;5.93;3.17;;;;;;;30.51;31.09;96546.59;2082308;28;20504;-59
2023/06/05 13:32:20;;;;;;;3.33;2.23;;;;;;;30.66;30.74;96548.34;2082160;28;20512;-59
2023/06/05 13:33:24;;;;;;;7.47;2.90;;;;;;;30.42;30.59;96543.22;2083521;28;20444;-60
2023/06/05 13:34:26;;;;;;;10.13;2.67;;;;;;;30.94;30.30;96546.44;2083516;28;20588;-59
2023/06/05 13:35:31;;;;;;;10.00;2.90;;;;;;;30.67;30.80;96550.03;2082825;28;20454;-59
2023/06/05 13:36:33;;;;;;;8.13;3.20;;;;;;;29.47;31.62;96538.00;2084640;28;20541;-59
2023/06/05 13:37:36;;;;;;;8.63;3.60;;;;;;;28.60;32.32;96534.16;2083535;28;20460;-59
2023/06/05 13:38:38;;;;;;;10.87;3.60;;;;;;;28.74;32.64;96537.91;2082207;28;20484;-59
2023/06/05 13:39:39;;;;;;;8.27;3.30;;;;;;;29.79;31.99;96543.91;2080953;28;20429;-59
2023/06/05 13:40:42;;;;;;;5.40;3.40;;;;;;;30.47;31.14;96547.97;2081564;28;20576;-59
2023/06/05 13:41:44;;;;;;;5.93;3.17;;;;;;;30.25;30.54;96533.75;2082997;28;20555;-59
2023/06/05 13:42:45;;;;;;;5.23;3.10;;;;;;;30.39;30.83;96550.84;2081075;28;20530;-59
2023/06/05 13:43:47;;;;;;;12.03;3.30;;;;;;;30.45;30.74;96537.41;2081625;28;20507;-59
2023/06/05 13:44:49;;;;;;;5.57;2.70;;;;;;;30.49;30.55;96537.03;2084388;28;20515;-59
2023/06/05 13:45:50;;;;;;;5.93;3.40;;;;;;;30.26;30.93;96530.03;2092108;28;20982;-59